Time;durP1;ratioP1;P1;durP2;ratioP2;P2;SDS_P1;SDS_P2;PMS_P1;PMS_P2;Temp;Humidity;BMP_temperature;BMP_pressure;BME280_temperature;BME280_humidity;BME280_pressure;Samples;Min_cycle;Max_cycle;Signal;HPM_P1;HPM_P2
2024/03/09 00:00:19;;;;;;;12.40;4.63;;;;;;;6.81;58.79;100559.75;5084675;28;20039;-67
2024/03/09 00:02:48;;;;;;;10.98;4.47;;;;;;;6.94;58.07;100567.47;5086478;28;20040;-67
2024/03/09 00:05:14;;;;;;;7.05;3.08;;;;;;;6.86;58.39;100560.31;5086671;28;20040;-67
2024/03/09 00:07:42;;;;;;;11.50;4.25;;;;;;;6.80;58.48;100558.19;5086344;28;20047;-67
2024/03/09 00:10:11;;;;;;;13.15;3.75;;;;;;;6.70;58.49;100551.38;5084524;28;20028;-67
2024/03/09 00:12:38;;;;;;;6.50;3.33;;;;;;;6.52;59.55;100541.97;5089045;28;20038;-67
2024/03/09 00:15:06;;;;;;;7.68;3.30;;;;;;;6.73;58.45;100548.03;5072204;28;20611;-67
2024/03/09 00:17:31;;;;;;;8.18;4.20;;;;;;;6.71;59.10;100544.13;5087102;28;20123;-67
2024/03/09 00:20:00;;;;;;;7.47;3.85;;;;;;;6.61;59.08;100534.63;5089487;28;20123;-67
2024/03/09 00:22:27;;;;;;;6.28;3.75;;;;;;;6.50;59.81;100544.19;5089795;28;20043;-67
2024/03/09 00:24:53;;;;;;;7.57;3.10;;;;;;;6.55;59.65;100535.94;5102026;27;20054;-68
2024/03/09 00:27:24;;;;;;;10.93;3.92;;;;;;;6.73;59.17;100534.66;5085988;28;20031;-67
2024/03/09 00:29:56;;;;;;;9.60;3.80;;;;;;;6.76;58.80;100531.31;5103342;27;20401;-67
2024/03/09 00:32:22;;;;;;;6.50;3.75;;;;;;;6.73;58.87;100537.34;5088386;28;20046;-67
2024/03/09 00:34:48;;;;;;;8.52;3.42;;;;;;;6.62;59.49;100543.44;5105692;27;20024;-67
2024/03/09 00:37:14;;;;;;;7.05;3.42;;;;;;;6.52;59.67;100535.81;5071769;28;20036;-67
2024/03/09 00:39:42;;;;;;;8.32;3.50;;;;;;;6.55;59.36;100519.91;5068235;28;20032;-67
2024/03/09 00:42:09;;;;;;;8.65;3.92;;;;;;;6.59;59.34;100528.81;5085286;28;20102;-67
2024/03/09 00:44:35;;;;;;;11.15;3.97;;;;;;;6.67;59.13;100532.53;5085642;28;20046;-67
2024/03/09 00:47:01;;;;;;;8.75;3.83;;;;;;;6.63;59.49;100527.06;5087330;28;20027;-67
2024/03/09 00:49:30;;;;;;;9.93;3.17;;;;;;;6.45;60.12;100516.84;5086425;28;20479;-67
2024/03/09 00:51:58;;;;;;;7.13;3.25;;;;;;;6.52;60.33;100520.56;5085286;28;20036;-67
2024/03/09 00:54:25;;;;;;;6.75;2.97;;;;;;;6.43;60.35;100525.19;5076613;28;20518;-67
2024/03/09 00:56:54;;;;;;;7.93;3.70;;;;;;;6.51;59.67;100526.22;5085580;28;20050;-67
2024/03/09 00:59:19;;;;;;;10.43;3.90;;;;;;;6.46;59.93;100513.06;5068786;28;20046;-67
2024/03/09 01:01:48;;;;;;;6.07;3.28;;;;;;;6.52;60.09;100512.53;5084594;28;20127;-67
2024/03/09 01:04:17;;;;;;;11.02;3.50;;;;;;;6.58;59.31;100513.13;5089069;28;20500;-67
2024/03/09 01:06:42;;;;;;;7.35;3.75;;;;;;;6.43;60.76;100505.72;5088659;28;20052;-67
2024/03/09 01:09:10;;;;;;;6.25;3.83;;;;;;;6.42;60.64;100498.78;5068793;28;20071;-67
2024/03/09 01:11:36;;;;;;;11.40;3.72;;;;;;;6.52;60.42;100503.72;5067650;28;20110;-67
2024/03/09 01:14:01;;;;;;;8.82;3.50;;;;;;;6.50;60.41;100508.63;5068978;28;20107;-67
2024/03/09 01:16:29;;;;;;;7.57;3.15;;;;;;;6.53;60.57;100503.41;5092431;28;20118;-67
2024/03/09 01:18:55;;;;;;;12.38;3.88;;;;;;;6.52;60.55;100503.72;5086259;28;20027;-67
2024/03/09 01:21:22;;;;;;;10.55;4.05;;;;;;;6.41;59.95;100502.59;5087850;28;20044;-67
2024/03/09 01:23:48;;;;;;;9.18;3.92;;;;;;;6.44;60.40;100492.00;5086682;28;20074;-67
2024/03/09 01:26:14;;;;;;;8.32;3.00;;;;;;;6.39;60.46;100495.66;5086452;28;20067;-67
2024/03/09 01:28:41;;;;;;;15.90;5.18;;;;;;;6.37;60.43;100486.41;5085399;28;20036;-67
2024/03/09 01:31:10;;;;;;;9.55;4.25;;;;;;;6.24;61.43;100492.84;5119220;27;20047;-67
2024/03/09 01:33:36;;;;;;;8.10;4.03;;;;;;;6.20;61.94;100475.88;5072669;28;20443;-67
2024/03/09 01:36:02;;;;;;;7.78;4.47;;;;;;;6.23;61.48;100483.28;5103506;28;20040;-67
2024/03/09 01:38:28;;;;;;;11.35;4.32;;;;;;;6.38;60.99;100480.75;5085869;28;20062;-67
2024/03/09 01:40:53;;;;;;;10.23;3.70;;;;;;;6.24;61.41;100485.59;5085110;28;20405;-67
2024/03/09 01:43:20;;;;;;;8.23;3.75;;;;;;;6.15;61.45;100484.13;5084401;28;20051;-67
2024/03/09 01:45:46;;;;;;;9.02;4.78;;;;;;;6.14;62.65;100471.84;5084824;28;20114;-67
2024/03/09 01:48:21;;;;;;;10.68;4.25;;;;;;;6.07;61.85;100466.28;5069147;28;20035;-67
2024/03/09 01:50:48;;;;;;;13.13;4.13;;;;;;;6.06;62.28;100460.13;5085497;28;20071;-67
2024/03/09 01:53:16;;;;;;;19.13;4.97;;;;;;;5.99;62.77;100464.47;5083690;28;20040;-67
2024/03/09 01:55:46;;;;;;;17.42;4.57;;;;;;;6.02;62.70;100463.81;5120255;27;20036;-67
2024/03/09 01:58:14;;;;;;;13.73;4.78;;;;;;;5.99;63.22;100465.25;5083721;28;20032;-67
2024/03/09 02:00:42;;;;;;;7.97;3.90;;;;;;;6.04;63.16;100462.34;5068799;28;20054;-67
2024/03/09 02:03:12;;;;;;;8.25;4.38;;;;;;;5.90;63.38;100459.22;5071104;28;20504;-67
2024/03/09 02:05:39;;;;;;;10.05;4.53;;;;;;;5.92;63.05;100464.97;5103809;28;20032;-67
2024/03/09 02:08:06;;;;;;;8.95;3.58;;;;;;;6.04;62.41;100461.59;5067138;28;20043;-67
2024/03/09 02:10:33;;;;;;;8.95;3.33;;;;;;;6.06;63.02;100451.34;5085212;28;20039;-67
2024/03/09 02:12:58;;;;;;;11.30;3.72;;;;;;;5.93;63.76;100455.88;5086477;28;20063;-67
2024/03/09 02:15:29;;;;;;;9.60;4.35;;;;;;;5.95;62.73;100453.66;5088874;28;20059;-67
2024/03/09 02:18:00;;;;;;;9.18;3.78;;;;;;;5.86;63.41;100444.94;5072395;28;20043;-67
2024/03/09 02:20:30;;;;;;;6.57;3.60;;;;;;;5.93;63.38;100444.41;5089780;28;20046;-67
2024/03/09 02:22:58;;;;;;;9.00;3.97;;;;;;;5.88;64.28;100442.72;5085764;28;20032;-67
2024/03/09 02:25:26;;;;;;;15.63;4.07;;;;;;;5.91;64.26;100446.59;5085386;28;20457;-67
2024/03/09 02:27:52;;;;;;;7.55;3.60;;;;;;;5.97;63.69;100440.75;5083404;28;20032;-67
2024/03/09 02:30:21;;;;;;;10.13;4.13;;;;;;;6.07;63.36;100448.34;5089042;28;20033;-67
2024/03/09 02:32:53;;;;;;;9.80;3.15;;;;;;;5.97;63.81;100438.06;5088877;28;20031;-67
2024/03/09 02:35:20;;;;;;;8.55;4.03;;;;;;;5.86;64.03;100442.28;5088121;28;21376;-67
2024/03/09 02:37:45;;;;;;;11.13;4.20;;;;;;;5.82;64.86;100435.19;5088436;28;21835;-67
2024/03/09 02:40:14;;;;;;;10.93;4.47;;;;;;;5.79;64.48;100427.84;5085591;28;20035;-67
2024/03/09 02:43:04;;;;;;;10.60;4.88;;;;;;;5.89;64.86;100438.94;5087407;28;20051;-67
2024/03/09 02:45:28;;;;;;;13.98;3.85;;;;;;;5.90;64.22;100421.81;5089052;28;20028;-67
2024/03/09 02:47:54;;;;;;;8.02;3.20;;;;;;;6.03;64.28;100425.28;5096175;28;20505;-67
2024/03/09 02:50:20;;;;;;;12.90;3.60;;;;;;;5.95;63.42;100426.94;5071384;28;20039;-67
2024/03/09 02:52:45;;;;;;;12.23;4.43;;;;;;;5.94;63.48;100429.94;5089626;28;20058;-67
2024/03/09 02:55:11;;;;;;;12.15;4.88;;;;;;;5.93;64.00;100431.03;5088450;28;20062;-67
2024/03/09 02:57:37;;;;;;;14.35;4.78;;;;;;;5.75;64.61;100419.69;5087472;28;20070;-67
2024/03/09 03:00:06;;;;;;;15.27;4.90;;;;;;;5.79;64.69;100417.16;5088448;28;20105;-67
2024/03/09 03:05:16;;;;;;;8.50;4.30;;;;;;;5.59;65.47;100408.06;5087078;28;20032;-67
2024/03/09 03:07:42;;;;;;;10.38;3.35;;;;;;;5.62;65.79;100419.97;5069974;28;20043;-67
2024/03/09 03:10:08;;;;;;;9.10;4.10;;;;;;;5.64;65.90;100404.38;5088647;28;20081;-67
2024/03/09 03:12:33;;;;;;;12.25;4.53;;;;;;;5.37;66.55;100408.38;5087941;28;20787;-67
2024/03/09 03:15:01;;;;;;;10.52;4.65;;;;;;;5.39;66.88;100406.16;5087157;28;20032;-67
2024/03/09 03:17:27;;;;;;;14.32;4.90;;;;;;;5.40;66.74;100411.19;5086171;28;20157;-67
2024/03/09 03:19:53;;;;;;;12.50;4.88;;;;;;;5.26;67.37;100397.34;5086010;28;20123;-67
2024/03/09 03:22:19;;;;;;;10.75;4.65;;;;;;;5.14;67.95;100402.59;5086613;28;20057;-67
2024/03/09 03:24:45;;;;;;;7.07;3.13;;;;;;;5.31;67.70;100399.78;5088048;28;20624;-67
2024/03/09 03:27:10;;;;;;;11.15;4.13;;;;;;;5.31;67.59;100396.34;5086024;28;20032;-67
2024/03/09 03:29:36;;;;;;;10.32;4.10;;;;;;;5.21;67.93;100396.72;5085167;28;20055;-67
2024/03/09 03:32:02;;;;;;;7.57;4.28;;;;;;;5.29;68.05;100396.66;5086121;28;20066;-67
2024/03/09 03:34:29;;;;;;;11.73;3.83;;;;;;;5.21;68.66;100394.84;5095476;28;20024;-67
2024/03/09 03:36:55;;;;;;;13.27;5.45;;;;;;;5.28;68.02;100383.66;5086980;28;20126;-67
2024/03/09 03:39:21;;;;;;;16.20;4.88;;;;;;;5.00;69.40;100383.38;5103224;28;20122;-67
2024/03/09 03:41:47;;;;;;;9.18;4.15;;;;;;;5.04;68.89;100384.28;5086330;28;20458;-67
2024/03/09 03:44:14;;;;;;;15.48;4.53;;;;;;;5.00;69.42;100374.56;5085984;28;20040;-67
2024/03/09 03:46:39;;;;;;;10.68;4.55;;;;;;;4.95;69.67;100382.78;5087260;28;20043;-68
2024/03/09 03:49:05;;;;;;;12.57;4.53;;;;;;;4.95;69.88;100372.91;5083360;28;20044;-67
2024/03/09 03:51:30;;;;;;;13.20;4.45;;;;;;;4.78;70.65;100367.66;5079268;28;20035;-67
2024/03/09 03:53:57;;;;;;;8.93;4.05;;;;;;;4.78;71.05;100354.31;5078487;28;20505;-67
2024/03/09 03:56:24;;;;;;;10.18;4.75;;;;;;;4.77;70.93;100359.97;5062075;28;20185;-67
2024/03/09 03:58:51;;;;;;;12.48;5.32;;;;;;;4.70;71.07;100363.16;5085873;28;20040;-67
2024/03/09 04:01:16;;;;;;;9.13;4.43;;;;;;;4.67;71.71;100357.69;5073979;28;20550;-67
2024/03/09 04:03:42;;;;;;;8.43;3.47;;;;;;;4.79;71.78;100373.78;5089538;28;20039;-67
2024/03/09 04:06:09;;;;;;;12.82;5.05;;;;;;;5.01;70.84;100365.50;5086637;28;20036;-67
2024/03/09 04:08:35;;;;;;;9.50;4.03;;;;;;;4.76;71.82;100369.88;5086741;28;20028;-67
2024/03/09 04:11:03;;;;;;;11.95;5.30;;;;;;;5.00;70.54;100363.91;5068176;28;20032;-67
2024/03/09 04:13:28;;;;;;;11.82;4.70;;;;;;;4.88;71.01;100348.59;5086868;28;20050;-67
2024/03/09 04:15:55;;;;;;;17.42;5.20;;;;;;;4.96;70.89;100345.09;5119370;27;20031;-68
2024/03/09 04:18:21;;;;;;;7.25;4.25;;;;;;;4.87;71.28;100354.28;5085580;28;20127;-67
2024/03/09 04:20:47;;;;;;;9.05;4.10;;;;;;;4.76;71.48;100350.44;5102466;27;20050;-67
2024/03/09 04:23:16;;;;;;;10.57;5.15;;;;;;;4.63;72.18;100344.22;5086135;28;20036;-67
2024/03/09 04:25:46;;;;;;;12.63;4.72;;;;;;;4.92;71.56;100349.53;5084304;28;20027;-67
2024/03/09 04:28:21;;;;;;;7.93;4.15;;;;;;;4.85;71.83;100343.16;5093955;28;20044;-67
2024/03/09 04:30:50;;;;;;;12.43;5.45;;;;;;;4.66;72.63;100338.25;5085885;28;20036;-67
2024/03/09 04:33:18;;;;;;;12.35;6.07;;;;;;;4.66;72.09;100332.13;5069097;28;20417;-67
2024/03/09 04:35:47;;;;;;;8.68;4.70;;;;;;;4.65;72.91;100328.69;5086474;28;20044;-67
2024/03/09 04:38:17;;;;;;;15.00;5.70;;;;;;;4.80;72.69;100333.44;5084988;28;20039;-67
2024/03/09 04:40:43;;;;;;;12.75;4.63;;;;;;;4.83;72.17;100338.13;5084236;28;20046;-67
2024/03/09 04:43:11;;;;;;;10.18;4.75;;;;;;;4.65;72.76;100320.69;5084582;28;20023;-67
2024/03/09 04:45:37;;;;;;;9.57;3.50;;;;;;;4.45;73.86;100321.44;5087303;28;20160;-67
2024/03/09 04:48:04;;;;;;;12.65;4.55;;;;;;;4.30;74.53;100321.97;5085470;28;20115;-67
2024/03/09 04:50:32;;;;;;;12.82;5.32;;;;;;;4.37;75.01;100306.28;5084236;28;20032;-67
2024/03/09 04:52:59;;;;;;;9.95;4.68;;;;;;;4.58;74.05;100299.09;5086063;28;20047;-67
2024/03/09 04:55:28;;;;;;;7.25;3.58;;;;;;;4.63;73.87;100303.47;5086203;28;20408;-67
2024/03/09 04:57:54;;;;;;;14.77;5.20;;;;;;;4.66;73.29;100303.59;5084781;28;20216;-67
2024/03/09 05:00:20;;;;;;;9.88;4.40;;;;;;;4.51;74.12;100296.13;5068913;28;20054;-67
2024/03/09 05:02:47;;;;;;;10.07;4.90;;;;;;;4.53;74.34;100291.25;5091371;28;20024;-67
2024/03/09 05:05:13;;;;;;;16.83;5.45;;;;;;;4.42;74.76;100287.41;5085281;28;20032;-67
2024/03/09 05:07:49;;;;;;;6.95;4.30;;;;;;;4.41;75.25;100289.28;5067634;28;20046;-67
2024/03/09 05:10:19;;;;;;;12.38;4.72;;;;;;;4.43;75.28;100289.75;5084897;28;20069;-68
2024/03/09 05:12:54;;;;;;;14.45;5.22;;;;;;;4.60;74.59;100294.22;5085958;28;20047;-68
2024/03/09 05:15:22;;;;;;;13.07;4.75;;;;;;;4.72;74.16;100301.50;5086043;28;20039;-67
2024/03/09 05:17:48;;;;;;;16.02;4.38;;;;;;;4.70;73.78;100295.72;5086031;28;20020;-67
2024/03/09 05:20:20;;;;;;;11.52;5.60;;;;;;;4.67;74.38;100302.47;5084595;28;20043;-67
2024/03/09 05:22:53;;;;;;;10.77;4.65;;;;;;;4.65;74.10;100296.69;5085198;28;20028;-67
2024/03/09 05:25:21;;;;;;;15.00;5.15;;;;;;;4.43;75.19;100297.00;5083358;28;20024;-67
2024/03/09 05:27:51;;;;;;;9.82;4.85;;;;;;;4.54;74.85;100298.97;5084178;28;20059;-67
2024/03/09 05:30:19;;;;;;;10.30;4.03;;;;;;;4.51;75.49;100294.25;5084879;28;20039;-67
2024/03/09 05:32:58;;;;;;;10.88;5.03;;;;;;;4.45;75.72;100292.13;5085681;28;20040;-67
2024/03/09 05:35:28;;;;;;;17.42;5.20;;;;;;;4.26;76.45;100281.06;5067346;28;20032;-67
2024/03/09 05:37:56;;;;;;;13.68;5.38;;;;;;;4.41;76.08;100288.53;5067906;28;20028;-67
2024/03/09 05:40:26;;;;;;;16.05;5.22;;;;;;;4.25;77.14;100285.63;5084821;28;20640;-67
2024/03/09 05:42:54;;;;;;;20.30;5.90;;;;;;;4.26;76.37;100276.53;5068668;28;20119;-67
2024/03/09 05:45:20;;;;;;;10.40;4.95;;;;;;;4.31;77.04;100286.22;5070387;28;20093;-67
2024/03/09 05:47:50;;;;;;;11.65;5.53;;;;;;;4.27;76.87;100286.09;5070650;28;20070;-67
2024/03/09 05:50:17;;;;;;;15.73;5.47;;;;;;;4.21;76.78;100294.59;5075458;28;20032;-67
2024/03/09 05:52:44;;;;;;;10.32;4.57;;;;;;;4.24;76.90;100284.06;5085191;28;20409;-67
2024/03/09 05:55:11;;;;;;;17.17;6.22;;;;;;;4.29;77.37;100280.44;5083725;28;20036;-67
2024/03/09 05:57:39;;;;;;;12.43;5.50;;;;;;;4.33;76.56;100290.16;5086580;28;20106;-67
2024/03/09 06:00:05;;;;;;;9.73;4.15;;;;;;;4.25;77.72;100284.84;5086984;28;20043;-67
2024/03/09 06:02:42;;;;;;;9.77;4.75;;;;;;;4.34;77.18;100298.91;5087527;28;20040;-67
2024/03/09 06:05:08;;;;;;;13.02;5.72;;;;;;;4.43;76.50;100295.09;5068125;28;20090;-67
2024/03/09 06:07:38;;;;;;;9.48;4.18;;;;;;;4.43;76.55;100297.00;5084640;28;20039;-67
2024/03/09 06:10:14;;;;;;;11.30;4.57;;;;;;;4.58;76.56;100299.09;5088336;28;20443;-67
2024/03/09 06:12:42;;;;;;;15.25;6.15;;;;;;;4.60;76.44;100296.88;5071471;28;20050;-67
2024/03/09 06:15:07;;;;;;;10.10;4.13;;;;;;;4.56;76.08;100293.28;5090064;28;20028;-67
2024/03/09 06:17:33;;;;;;;14.13;5.82;;;;;;;4.58;76.41;100293.75;5090373;28;20070;-67
2024/03/09 06:20:02;;;;;;;14.10;6.05;;;;;;;4.64;75.85;100287.13;5071016;28;20153;-67
2024/03/09 06:22:30;;;;;;;18.88;5.85;;;;;;;4.66;76.26;100284.94;5087034;28;20088;-68
2024/03/09 06:24:55;;;;;;;15.00;7.53;;;;;;;4.58;77.18;100288.44;5088945;28;20036;-67
2024/03/09 06:27:21;;;;;;;21.73;5.80;;;;;;;4.51;76.59;100290.81;5087931;28;20043;-68
2024/03/09 06:29:46;;;;;;;12.77;4.55;;;;;;;4.51;77.31;100285.47;5071530;28;20028;-67
2024/03/09 06:32:12;;;;;;;14.43;5.50;;;;;;;4.58;77.12;100299.09;5074816;28;20032;-67
2024/03/09 06:34:43;;;;;;;8.27;4.65;;;;;;;4.49;77.36;100290.38;5090304;28;20181;-67
2024/03/09 06:37:12;;;;;;;16.40;5.40;;;;;;;4.40;78.13;100292.28;5077690;28;20040;-67
2024/03/09 06:39:39;;;;;;;14.98;5.55;;;;;;;4.56;77.17;100290.63;5087382;28;20032;-67
2024/03/09 06:42:09;;;;;;;11.57;5.10;;;;;;;4.65;76.90;100285.22;5071582;28;20066;-67
2024/03/09 06:44:37;;;;;;;19.48;6.95;;;;;;;4.49;78.49;100290.38;5088469;28;20036;-67
2024/03/09 06:47:06;;;;;;;10.80;4.68;;;;;;;4.50;78.42;100282.03;5075823;28;20039;-67
2024/03/09 06:49:38;;;;;;;16.85;6.35;;;;;;;4.52;78.07;100287.03;5089818;28;20662;-67
2024/03/09 06:52:05;;;;;;;10.23;4.78;;;;;;;4.50;78.34;100283.91;5087411;28;20043;-67
2024/03/09 06:54:31;;;;;;;17.05;6.00;;;;;;;4.57;77.86;100294.84;5088857;28;20062;-67
2024/03/09 06:56:57;;;;;;;17.88;5.45;;;;;;;4.35;79.81;100297.81;5070602;28;20400;-67
2024/03/09 06:59:23;;;;;;;17.08;7.03;;;;;;;4.63;78.50;100290.88;5089537;28;20130;-67
2024/03/09 07:01:57;;;;;;;13.57;5.72;;;;;;;4.68;77.99;100295.25;5087992;28;20031;-67
2024/03/09 07:04:27;;;;;;;12.98;5.40;;;;;;;4.83;78.00;100297.34;5105108;27;20039;-67
2024/03/09 07:06:53;;;;;;;7.97;3.67;;;;;;;4.89;77.62;100294.16;5087492;28;20040;-67
2024/03/09 07:09:20;;;;;;;18.05;6.65;;;;;;;5.07;76.88;100297.50;5085863;28;20136;-68
2024/03/09 07:11:46;;;;;;;19.65;6.57;;;;;;;4.95;77.34;100298.22;5086654;28;20043;-67
2024/03/09 07:14:12;;;;;;;10.18;4.97;;;;;;;4.99;77.77;100287.66;5119157;27;20132;-67
2024/03/09 07:16:37;;;;;;;10.38;4.90;;;;;;;5.10;77.06;100294.94;5087178;28;20127;-68
2024/03/09 07:19:04;;;;;;;18.45;6.07;;;;;;;5.13;76.75;100288.94;5082864;28;20078;-68
2024/03/09 07:21:30;;;;;;;16.58;6.65;;;;;;;5.16;77.46;100292.84;5085189;28;20393;-67
2024/03/09 07:23:58;;;;;;;16.90;5.55;;;;;;;5.24;77.45;100294.66;5068935;28;20123;-67
2024/03/09 07:26:25;;;;;;;17.35;6.10;;;;;;;5.44;76.65;100278.59;5087179;28;20055;-67
2024/03/09 07:28:54;;;;;;;16.27;5.65;;;;;;;5.53;76.53;100278.53;5086404;28;20233;-68
2024/03/09 07:31:23;;;;;;;12.50;4.90;;;;;;;5.60;76.21;100275.28;5085128;28;20032;-67
2024/03/09 07:33:53;;;;;;;14.73;5.47;;;;;;;5.92;75.78;100274.50;5086453;28;20036;-68
2024/03/09 07:36:22;;;;;;;15.07;5.55;;;;;;;6.12;74.81;100273.63;5085905;28;20028;-67
2024/03/09 07:38:48;;;;;;;17.00;5.82;;;;;;;6.42;73.72;100274.16;5080394;28;20070;-67
2024/03/09 07:41:21;;;;;;;16.80;5.97;;;;;;;6.55;73.77;100276.50;5052367;28;20043;-68
2024/03/09 07:43:47;;;;;;;12.15;4.82;;;;;;;6.95;71.76;100271.94;5086654;28;20069;-67
2024/03/09 07:46:13;;;;;;;13.48;6.18;;;;;;;7.10;70.13;100279.25;5060332;28;20031;-67
2024/03/09 07:48:40;;;;;;;12.25;4.95;;;;;;;7.19;69.98;100271.84;5087761;28;20028;-67
2024/03/09 07:51:10;;;;;;;14.23;5.50;;;;;;;7.41;69.77;100272.44;5086404;28;20059;-67
2024/03/09 07:53:35;;;;;;;11.98;5.82;;;;;;;7.35;69.50;100263.88;5085853;28;20052;-67
2024/03/09 07:56:02;;;;;;;8.23;4.82;;;;;;;7.64;67.85;100249.31;5088687;28;20062;-67
2024/03/09 07:58:28;;;;;;;12.77;4.85;;;;;;;7.64;68.02;100260.03;5089782;28;20074;-67
2024/03/09 08:00:54;;;;;;;22.60;6.68;;;;;;;7.91;67.92;100254.59;5088410;28;20032;-68
2024/03/09 08:03:20;;;;;;;17.73;6.18;;;;;;;8.02;67.34;100255.63;5089351;28;20035;-67
2024/03/09 08:05:45;;;;;;;18.45;6.13;;;;;;;8.43;65.64;100248.13;5089132;28;20039;-68
2024/03/09 08:08:11;;;;;;;20.77;6.93;;;;;;;8.73;64.54;100247.25;5072105;28;20028;-67
2024/03/09 08:10:47;;;;;;;13.93;5.43;;;;;;;8.95;62.54;100249.25;5086586;28;20039;-67
2024/03/09 08:13:14;;;;;;;10.73;4.90;;;;;;;9.00;63.27;100254.34;5086160;28;20031;-67
2024/03/09 08:15:40;;;;;;;17.45;6.05;;;;;;;9.09;62.67;100243.41;5089915;28;20569;-67
2024/03/09 08:18:09;;;;;;;18.65;6.00;;;;;;;9.26;61.42;100251.00;5067564;28;20042;-68
2024/03/09 08:20:34;;;;;;;16.58;5.45;;;;;;;9.48;61.40;100260.25;5060248;28;20039;-67
2024/03/09 08:23:01;;;;;;;18.63;6.65;;;;;;;9.58;60.89;100246.22;5087609;28;20034;-68
2024/03/09 08:25:27;;;;;;;20.83;6.20;;;;;;;9.72;59.71;100241.84;5087726;28;20035;-67
2024/03/09 08:27:54;;;;;;;10.50;4.75;;;;;;;9.36;60.74;100253.13;5083676;28;20040;-67
2024/03/09 08:30:20;;;;;;;11.80;5.38;;;;;;;9.65;60.68;100241.75;5069386;28;20039;-67
2024/03/09 08:32:53;;;;;;;19.42;6.38;;;;;;;9.85;59.88;100237.09;5051963;28;20036;-68
2024/03/09 08:35:20;;;;;;;25.77;6.20;;;;;;;9.95;59.68;100248.00;5080788;28;20050;-67
2024/03/09 08:37:48;;;;;;;14.20;5.13;;;;;;;10.19;58.27;100236.09;5083142;28;20684;-67
2024/03/09 08:40:18;;;;;;;15.48;5.80;;;;;;;10.21;59.02;100228.44;5084510;28;20118;-68
2024/03/09 08:42:54;;;;;;;12.82;5.22;;;;;;;10.36;58.30;100222.13;5089438;28;20028;-67
2024/03/09 08:45:21;;;;;;;15.15;5.93;;;;;;;10.42;57.67;100230.66;5091970;28;20031;-67
2024/03/09 08:47:51;;;;;;;17.33;5.80;;;;;;;10.56;58.38;100223.56;5087473;28;20020;-67
2024/03/09 08:50:17;;;;;;;14.18;5.25;;;;;;;10.65;56.56;100223.28;5083679;28;20043;-67
2024/03/09 08:52:45;;;;;;;15.38;5.15;;;;;;;10.70;57.38;100229.09;5084460;28;20036;-67
2024/03/09 08:55:11;;;;;;;13.40;5.68;;;;;;;10.63;57.19;100222.84;5082612;28;20510;-67
2024/03/09 08:58:01;;;;;;;11.70;4.68;;;;;;;10.79;57.21;100221.56;5087204;28;20396;-67
2024/03/09 09:00:27;;;;;;;11.20;5.05;;;;;;;11.13;56.48;100222.31;5085450;28;20036;-68
2024/03/09 09:02:56;;;;;;;15.35;4.90;;;;;;;11.33;54.80;100226.38;5085221;28;20563;-67
2024/03/09 09:05:22;;;;;;;18.05;5.68;;;;;;;11.32;55.47;100218.66;5086648;28;20122;-67
2024/03/09 09:07:48;;;;;;;14.82;5.72;;;;;;;11.42;55.62;100216.06;5120712;27;20124;-67
2024/03/09 09:10:15;;;;;;;18.15;5.93;;;;;;;11.39;55.58;100226.81;5091048;28;20063;-67
2024/03/09 09:12:42;;;;;;;12.70;5.43;;;;;;;11.62;55.23;100230.13;5086139;28;20067;-67
2024/03/09 09:15:09;;;;;;;12.93;5.28;;;;;;;11.77;54.86;100219.13;5087969;28;20061;-67
2024/03/09 09:17:35;;;;;;;16.58;5.85;;;;;;;12.14;54.01;100219.00;5087103;28;20054;-67
2024/03/09 09:20:00;;;;;;;15.43;5.65;;;;;;;12.26;53.49;100216.00;5089283;28;20146;-68
2024/03/09 09:22:26;;;;;;;14.88;6.32;;;;;;;12.43;53.35;100206.44;5088201;28;20549;-67
2024/03/09 09:24:56;;;;;;;11.82;4.85;;;;;;;12.57;52.38;100214.63;5087323;28;20028;-67
2024/03/09 09:27:25;;;;;;;13.98;5.60;;;;;;;12.66;52.14;100207.72;5085582;28;20112;-67
2024/03/09 09:29:50;;;;;;;13.98;4.60;;;;;;;12.44;52.18;100200.69;5086242;28;20052;-67
2024/03/09 09:32:17;;;;;;;18.27;7.00;;;;;;;12.44;52.23;100199.91;5085963;28;20051;-68
2024/03/09 09:34:43;;;;;;;13.55;5.03;;;;;;;12.32;51.96;100211.03;5087748;28;20511;-67
2024/03/09 09:37:12;;;;;;;14.65;5.38;;;;;;;12.20;52.95;100203.22;5088714;28;20028;-67
2024/03/09 09:39:42;;;;;;;15.02;5.85;;;;;;;12.19;52.70;100185.50;5075729;28;20089;-67
2024/03/09 09:42:09;;;;;;;13.95;5.20;;;;;;;12.16;53.24;100197.03;5084503;28;20044;-67
2024/03/09 09:44:36;;;;;;;13.45;5.45;;;;;;;12.28;53.44;100186.69;5090118;28;20035;-67
2024/03/09 09:47:02;;;;;;;14.23;5.40;;;;;;;12.35;53.25;100192.13;5088582;28;20032;-67
2024/03/09 09:49:28;;;;;;;12.02;5.15;;;;;;;12.49;53.12;100180.63;5089626;28;20449;-67
2024/03/09 09:51:57;;;;;;;10.60;5.35;;;;;;;12.58;52.86;100175.69;5088863;28;20119;-67
2024/03/09 09:54:26;;;;;;;15.85;5.10;;;;;;;12.41;52.69;100173.63;5090685;28;20039;-67
2024/03/09 09:56:53;;;;;;;10.88;4.82;;;;;;;12.37;53.29;100170.94;5090415;28;20112;-67
2024/03/09 09:59:19;;;;;;;25.77;6.38;;;;;;;12.35;53.59;100173.22;5091428;28;20032;-67
2024/03/09 10:01:46;;;;;;;11.20;5.00;;;;;;;12.33;53.67;100175.53;5090502;28;20034;-67
2024/03/09 10:04:12;;;;;;;13.35;5.40;;;;;;;11.77;54.43;100169.78;5124198;27;20031;-67
2024/03/09 10:06:37;;;;;;;14.02;4.95;;;;;;;11.53;54.50;100157.63;5092612;28;20553;-67
2024/03/09 10:09:03;;;;;;;15.18;5.40;;;;;;;11.68;55.19;100158.53;5091880;28;20044;-67
2024/03/09 10:11:31;;;;;;;11.70;5.15;;;;;;;11.76;54.46;100166.31;5077683;28;20035;-67
2024/03/09 10:14:01;;;;;;;11.00;4.05;;;;;;;11.92;54.13;100173.38;5075313;28;20067;-67
2024/03/09 10:16:31;;;;;;;18.77;5.75;;;;;;;11.66;53.84;100177.81;5060304;28;20032;-67
2024/03/09 10:18:58;;;;;;;11.38;4.38;;;;;;;11.56;55.19;100162.28;5088521;28;20040;-67
2024/03/09 10:21:33;;;;;;;13.52;4.95;;;;;;;11.60;55.61;100171.16;5093356;28;20602;-67
2024/03/09 10:24:04;;;;;;;10.45;4.38;;;;;;;11.53;56.08;100156.84;5117721;27;20036;-67
2024/03/09 10:26:30;;;;;;;13.70;5.57;;;;;;;11.54;55.59;100159.16;5084814;28;20035;-67
2024/03/09 10:29:03;;;;;;;18.42;5.32;;;;;;;11.84;54.54;100161.75;5089196;28;20036;-67
2024/03/09 10:31:30;;;;;;;12.38;4.40;;;;;;;11.75;54.68;100164.75;5087972;28;20032;-67
2024/03/09 10:33:56;;;;;;;15.35;5.05;;;;;;;11.85;55.09;100163.28;5093668;28;20036;-67
2024/03/09 10:36:23;;;;;;;9.95;3.75;;;;;;;11.97;54.88;100149.50;5090487;28;20132;-67
2024/03/09 10:38:56;;;;;;;12.50;5.65;;;;;;;11.94;54.75;100146.78;5092449;28;20020;-67
2024/03/09 10:41:24;;;;;;;16.67;4.47;;;;;;;11.98;54.66;100151.03;5094766;28;20065;-67
2024/03/09 10:43:52;;;;;;;13.05;4.63;;;;;;;11.97;54.24;100140.63;5087493;28;20597;-67
2024/03/09 10:46:25;;;;;;;13.13;5.07;;;;;;;11.88;55.52;100138.25;5089934;28;20127;-67
2024/03/09 10:48:54;;;;;;;13.80;5.18;;;;;;;12.25;54.95;100141.53;5087312;28;20036;-67
2024/03/09 10:51:50;;;;;;;12.88;5.28;;;;;;;12.37;54.30;100135.03;5089137;28;20038;-67
2024/03/09 10:54:34;;;;;;;13.10;4.93;;;;;;;12.28;54.57;100126.53;5089795;28;20046;-67
2024/03/09 10:57:02;;;;;;;14.88;5.07;;;;;;;12.27;54.19;100123.03;5091189;27;20038;-67
2024/03/09 10:59:30;;;;;;;9.40;3.75;;;;;;;12.09;54.00;100143.00;5113720;27;20077;-67
2024/03/09 11:01:56;;;;;;;8.80;3.92;;;;;;;11.99;54.86;100128.31;5069098;28;20032;-67
2024/03/09 11:04:24;;;;;;;8.02;3.85;;;;;;;12.06;54.46;100122.94;5087894;28;20528;-67
2024/03/09 11:06:51;;;;;;;6.65;3.22;;;;;;;11.75;53.72;100151.28;5088837;28;20058;-67
2024/03/09 11:09:29;;;;;;;7.72;3.78;;;;;;;11.71;55.20;100130.84;5089778;28;20032;-67
2024/03/09 11:11:56;;;;;;;7.25;4.03;;;;;;;11.92;54.46;100132.88;5086826;28;20035;-67
2024/03/09 11:14:23;;;;;;;7.63;3.30;;;;;;;11.89;54.15;100129.00;5103838;27;20040;-67
2024/03/09 11:16:55;;;;;;;10.52;4.40;;;;;;;12.15;54.57;100123.41;5090686;28;20040;-67
2024/03/09 11:19:22;;;;;;;9.48;3.50;;;;;;;12.07;53.26;100116.41;5080504;28;20043;-67
2024/03/09 11:21:51;;;;;;;8.38;3.10;;;;;;;11.87;53.69;100111.63;5083297;28;20554;-67
2024/03/09 11:24:19;;;;;;;11.65;4.57;;;;;;;11.60;54.08;100113.75;5068231;28;20089;-67
2024/03/09 11:26:52;;;;;;;6.68;2.28;;;;;;;11.78;54.12;100114.69;5119045;27;20044;-68
2024/03/09 11:29:21;;;;;;;9.63;3.65;;;;;;;11.92;53.69;100112.09;5087280;28;20042;-67